sensor_id;sensor_type;location;lat;lon;timestamp;P1;durP1;ratioP1;P2;durP2;ratioP2
12214;SDS011;6170;42.206;24.142;2023-07-29T00:01:19;1999.90;;;999.90;;
12214;SDS011;6170;42.206;24.142;2023-07-29T00:03:46;1999.90;;;999.90;;
12214;SDS011;6170;42.206;24.142;2023-07-29T00:06:14;1999.90;;;999.90;;
12214;SDS011;6170;42.206;24.142;2023-07-29T00:08:43;1999.90;;;999.90;;
12214;SDS011;6170;42.206;24.142;2023-07-29T00:11:10;1999.90;;;999.90;;
12214;SDS011;6170;42.206;24.142;2023-07-29T00:13:37;1999.90;;;999.90;;
12214;SDS011;6170;42.206;24.142;2023-07-29T00:16:04;1999.90;;;999.90;;
12214;SDS011;6170;42.206;24.142;2023-07-29T00:18:32;1999.90;;;999.90;;
12214;SDS011;6170;42.206;24.142;2023-07-29T00:20:59;1999.90;;;999.90;;
12214;SDS011;6170;42.206;24.142;2023-07-29T00:23:27;1999.90;;;999.90;;
12214;SDS011;6170;42.206;24.142;2023-07-29T00:25:55;1999.90;;;999.90;;
12214;SDS011;6170;42.206;24.142;2023-07-29T00:28:22;1999.90;;;999.90;;
12214;SDS011;6170;42.206;24.142;2023-07-29T00:30:50;1999.90;;;999.90;;
12214;SDS011;6170;42.206;24.142;2023-07-29T00:33:17;1999.90;;;999.90;;
12214;SDS011;6170;42.206;24.142;2023-07-29T00:35:45;1999.90;;;999.90;;
12214;SDS011;6170;42.206;24.142;2023-07-29T00:38:12;1999.90;;;999.90;;
12214;SDS011;6170;42.206;24.142;2023-07-29T00:40:40;1999.90;;;999.90;;
12214;SDS011;6170;42.206;24.142;2023-07-29T00:43:08;1999.90;;;999.90;;
12214;SDS011;6170;42.206;24.142;2023-07-29T00:45:35;1999.90;;;999.90;;
12214;SDS011;6170;42.206;24.142;2023-07-29T00:48:03;1999.90;;;999.90;;
12214;SDS011;6170;42.206;24.142;2023-07-29T00:50:31;1999.90;;;999.90;;
12214;SDS011;6170;42.206;24.142;2023-07-29T00:52:59;1999.90;;;999.90;;
12214;SDS011;6170;42.206;24.142;2023-07-29T00:55:26;1999.90;;;999.90;;
12214;SDS011;6170;42.206;24.142;2023-07-29T00:57:54;1999.90;;;999.90;;
12214;SDS011;6170;42.206;24.142;2023-07-29T01:00:23;1999.90;;;999.90;;
12214;SDS011;6170;42.206;24.142;2023-07-29T01:02:51;1999.90;;;999.90;;
12214;SDS011;6170;42.206;24.142;2023-07-29T01:05:20;1999.90;;;999.90;;
12214;SDS011;6170;42.206;24.142;2023-07-29T01:07:49;1999.90;;;999.90;;
12214;SDS011;6170;42.206;24.142;2023-07-29T01:10:25;1999.90;;;999.90;;
12214;SDS011;6170;42.206;24.142;2023-07-29T01:13:01;1999.90;;;999.90;;
12214;SDS011;6170;42.206;24.142;2023-07-29T01:15:39;1999.90;;;999.90;;
12214;SDS011;6170;42.206;24.142;2023-07-29T01:18:11;1999.90;;;999.90;;
12214;SDS011;6170;42.206;24.142;2023-07-29T01:20:45;1999.90;;;999.90;;
12214;SDS011;6170;42.206;24.142;2023-07-29T01:23:14;1999.90;;;999.90;;
12214;SDS011;6170;42.206;24.142;2023-07-29T01:25:44;1999.90;;;999.90;;
12214;SDS011;6170;42.206;24.142;2023-07-29T01:28:11;1999.90;;;999.90;;
12214;SDS011;6170;42.206;24.142;2023-07-29T01:30:39;1999.90;;;999.90;;
12214;SDS011;6170;42.206;24.142;2023-07-29T01:33:11;1999.90;;;999.90;;
12214;SDS011;6170;42.206;24.142;2023-07-29T01:35:44;1999.90;;;999.90;;
12214;SDS011;6170;42.206;24.142;2023-07-29T01:38:16;1999.90;;;999.90;;
12214;SDS011;6170;42.206;24.142;2023-07-29T01:40:47;1999.90;;;999.90;;
12214;SDS011;6170;42.206;24.142;2023-07-29T01:43:16;1999.90;;;999.90;;
12214;SDS011;6170;42.206;24.142;2023-07-29T01:45:48;1999.90;;;999.90;;
12214;SDS011;6170;42.206;24.142;2023-07-29T01:48:16;1999.90;;;999.90;;
12214;SDS011;6170;42.206;24.142;2023-07-29T01:50:43;1999.90;;;999.90;;
12214;SDS011;6170;42.206;24.142;2023-07-29T01:53:10;1999.90;;;999.90;;
12214;SDS011;6170;42.206;24.142;2023-07-29T01:55:38;1999.90;;;999.90;;
12214;SDS011;6170;42.206;24.142;2023-07-29T01:58:07;1999.90;;;999.90;;
12214;SDS011;6170;42.206;24.142;2023-07-29T02:00:34;1999.90;;;999.90;;
12214;SDS011;6170;42.206;24.142;2023-07-29T02:03:01;1999.90;;;999.90;;
12214;SDS011;6170;42.206;24.142;2023-07-29T02:05:29;1999.90;;;999.90;;
12214;SDS011;6170;42.206;24.142;2023-07-29T02:07:56;1999.90;;;999.90;;
12214;SDS011;6170;42.206;24.142;2023-07-29T02:10:23;1999.90;;;999.90;;
12214;SDS011;6170;42.206;24.142;2023-07-29T02:12:50;1999.90;;;999.90;;
12214;SDS011;6170;42.206;24.142;2023-07-29T02:15:19;1999.90;;;999.90;;
12214;SDS011;6170;42.206;24.142;2023-07-29T02:17:46;1999.90;;;999.90;;
12214;SDS011;6170;42.206;24.142;2023-07-29T02:20:13;1999.90;;;999.90;;
12214;SDS011;6170;42.206;24.142;2023-07-29T02:22:41;1999.90;;;999.90;;
12214;SDS011;6170;42.206;24.142;2023-07-29T02:25:08;1999.90;;;999.90;;
12214;SDS011;6170;42.206;24.142;2023-07-29T02:27:36;1999.90;;;999.90;;
12214;SDS011;6170;42.206;24.142;2023-07-29T02:30:03;1999.90;;;999.90;;
12214;SDS011;6170;42.206;24.142;2023-07-29T02:32:32;1999.90;;;999.90;;
12214;SDS011;6170;42.206;24.142;2023-07-29T02:34:59;1999.90;;;999.90;;
12214;SDS011;6170;42.206;24.142;2023-07-29T02:37:27;1999.90;;;999.90;;
12214;SDS011;6170;42.206;24.142;2023-07-29T02:39:54;1999.90;;;999.90;;
12214;SDS011;6170;42.206;24.142;2023-07-29T02:42:21;1999.90;;;999.90;;
12214;SDS011;6170;42.206;24.142;2023-07-29T02:44:48;1999.90;;;999.90;;
12214;SDS011;6170;42.206;24.142;2023-07-29T02:47:16;1999.90;;;999.90;;
12214;SDS011;6170;42.206;24.142;2023-07-29T02:49:44;1999.90;;;999.90;;
12214;SDS011;6170;42.206;24.142;2023-07-29T02:52:11;1999.90;;;999.90;;
12214;SDS011;6170;42.206;24.142;2023-07-29T02:54:39;1999.90;;;999.90;;
12214;SDS011;6170;42.206;24.142;2023-07-29T02:57:06;1999.90;;;999.90;;
12214;SDS011;6170;42.206;24.142;2023-07-29T02:59:33;1999.90;;;999.90;;
12214;SDS011;6170;42.206;24.142;2023-07-29T03:02:00;1999.90;;;999.90;;
12214;SDS011;6170;42.206;24.142;2023-07-29T03:04:27;1999.90;;;999.90;;
12214;SDS011;6170;42.206;24.142;2023-07-29T03:06:56;1999.90;;;999.90;;
12214;SDS011;6170;42.206;24.142;2023-07-29T03:09:24;1999.90;;;999.90;;
12214;SDS011;6170;42.206;24.142;2023-07-29T03:11:51;1999.90;;;999.90;;
12214;SDS011;6170;42.206;24.142;2023-07-29T03:14:20;1999.90;;;999.90;;
12214;SDS011;6170;42.206;24.142;2023-07-29T03:16:47;1999.90;;;999.90;;
12214;SDS011;6170;42.206;24.142;2023-07-29T03:19:14;1999.90;;;999.90;;
12214;SDS011;6170;42.206;24.142;2023-07-29T03:21:42;1999.90;;;999.90;;
12214;SDS011;6170;42.206;24.142;2023-07-29T03:24:10;1999.90;;;999.90;;
12214;SDS011;6170;42.206;24.142;2023-07-29T03:26:37;1999.90;;;999.90;;
12214;SDS011;6170;42.206;24.142;2023-07-29T03:29:05;1999.90;;;999.90;;
12214;SDS011;6170;42.206;24.142;2023-07-29T03:31:32;1999.90;;;999.90;;
12214;SDS011;6170;42.206;24.142;2023-07-29T03:33:59;1999.90;;;999.90;;
12214;SDS011;6170;42.206;24.142;2023-07-29T03:36:26;1999.90;;;999.90;;
12214;SDS011;6170;42.206;24.142;2023-07-29T03:38:53;1999.90;;;999.90;;
12214;SDS011;6170;42.206;24.142;2023-07-29T03:41:22;1999.90;;;999.90;;
12214;SDS011;6170;42.206;24.142;2023-07-29T03:43:49;1999.90;;;999.90;;
12214;SDS011;6170;42.206;24.142;2023-07-29T03:46:17;1999.90;;;999.90;;
12214;SDS011;6170;42.206;24.142;2023-07-29T03:48:46;1999.90;;;999.90;;
12214;SDS011;6170;42.206;24.142;2023-07-29T03:51:14;1999.90;;;999.90;;
12214;SDS011;6170;42.206;24.142;2023-07-29T03:53:41;1999.90;;;999.90;;
12214;SDS011;6170;42.206;24.142;2023-07-29T03:56:08;1999.90;;;999.90;;
12214;SDS011;6170;42.206;24.142;2023-07-29T03:58:37;1999.90;;;999.90;;
12214;SDS011;6170;42.206;24.142;2023-07-29T04:01:04;1999.90;;;999.90;;
12214;SDS011;6170;42.206;24.142;2023-07-29T04:03:31;1999.90;;;999.90;;
12214;SDS011;6170;42.206;24.142;2023-07-29T04:05:59;1999.90;;;999.90;;
12214;SDS011;6170;42.206;24.142;2023-07-29T04:08:27;1999.90;;;999.90;;
12214;SDS011;6170;42.206;24.142;2023-07-29T04:10:54;1999.90;;;999.90;;
12214;SDS011;6170;42.206;24.142;2023-07-29T04:13:21;1999.90;;;999.90;;
12214;SDS011;6170;42.206;24.142;2023-07-29T04:15:50;1999.90;;;999.90;;
12214;SDS011;6170;42.206;24.142;2023-07-29T04:18:17;1999.90;;;999.90;;
12214;SDS011;6170;42.206;24.142;2023-07-29T04:20:44;1999.90;;;999.90;;
12214;SDS011;6170;42.206;24.142;2023-07-29T04:23:12;1999.90;;;999.90;;
12214;SDS011;6170;42.206;24.142;2023-07-29T04:25:39;1999.90;;;999.90;;
12214;SDS011;6170;42.206;24.142;2023-07-29T04:28:06;1999.90;;;999.90;;
12214;SDS011;6170;42.206;24.142;2023-07-29T04:30:33;1999.90;;;999.90;;
12214;SDS011;6170;42.206;24.142;2023-07-29T04:33:02;1999.90;;;999.90;;
12214;SDS011;6170;42.206;24.142;2023-07-29T04:35:29;1999.90;;;999.90;;
12214;SDS011;6170;42.206;24.142;2023-07-29T04:37:56;1999.90;;;999.90;;
12214;SDS011;6170;42.206;24.142;2023-07-29T04:40:24;1999.90;;;999.90;;
12214;SDS011;6170;42.206;24.142;2023-07-29T04:42:51;1999.90;;;999.90;;
12214;SDS011;6170;42.206;24.142;2023-07-29T04:45:18;1999.90;;;999.90;;
12214;SDS011;6170;42.206;24.142;2023-07-29T04:47:45;1999.90;;;999.90;;
12214;SDS011;6170;42.206;24.142;2023-07-29T04:50:14;1999.90;;;999.90;;
12214;SDS011;6170;42.206;24.142;2023-07-29T04:52:41;1999.90;;;999.90;;
12214;SDS011;6170;42.206;24.142;2023-07-29T04:55:09;1999.90;;;999.90;;
12214;SDS011;6170;42.206;24.142;2023-07-29T04:57:36;1999.90;;;999.90;;
12214;SDS011;6170;42.206;24.142;2023-07-29T05:00:03;1999.90;;;999.90;;
12214;SDS011;6170;42.206;24.142;2023-07-29T05:02:31;1999.90;;;999.90;;
12214;SDS011;6170;42.206;24.142;2023-07-29T05:04:58;1999.90;;;999.90;;
12214;SDS011;6170;42.206;24.142;2023-07-29T05:07:27;1999.90;;;999.90;;
12214;SDS011;6170;42.206;24.142;2023-07-29T05:09:54;1999.90;;;999.90;;
12214;SDS011;6170;42.206;24.142;2023-07-29T05:12:21;1999.90;;;999.90;;
12214;SDS011;6170;42.206;24.142;2023-07-29T05:14:48;1999.90;;;999.90;;
12214;SDS011;6170;42.206;24.142;2023-07-29T05:17:16;1999.90;;;999.90;;
12214;SDS011;6170;42.206;24.142;2023-07-29T05:19:43;1999.90;;;999.90;;
12214;SDS011;6170;42.206;24.142;2023-07-29T05:22:10;1999.90;;;999.90;;
12214;SDS011;6170;42.206;24.142;2023-07-29T05:24:39;1999.90;;;999.90;;
12214;SDS011;6170;42.206;24.142;2023-07-29T05:27:06;1999.90;;;999.90;;
12214;SDS011;6170;42.206;24.142;2023-07-29T05:29:33;1999.90;;;999.90;;
12214;SDS011;6170;42.206;24.142;2023-07-29T05:32:01;1999.90;;;999.90;;
12214;SDS011;6170;42.206;24.142;2023-07-29T05:34:28;1999.90;;;999.90;;
12214;SDS011;6170;42.206;24.142;2023-07-29T05:36:55;1999.90;;;999.90;;
12214;SDS011;6170;42.206;24.142;2023-07-29T05:39:22;1999.90;;;999.90;;
12214;SDS011;6170;42.206;24.142;2023-07-29T05:41:52;1999.90;;;999.90;;
12214;SDS011;6170;42.206;24.142;2023-07-29T05:44:19;1999.90;;;999.90;;
12214;SDS011;6170;42.206;24.142;2023-07-29T05:46:46;1999.90;;;999.90;;
12214;SDS011;6170;42.206;24.142;2023-07-29T05:49:14;1999.90;;;999.90;;
12214;SDS011;6170;42.206;24.142;2023-07-29T05:51:41;1999.90;;;999.90;;
12214;SDS011;6170;42.206;24.142;2023-07-29T05:54:08;1999.90;;;999.90;;
12214;SDS011;6170;42.206;24.142;2023-07-29T05:56:35;1999.90;;;999.90;;
12214;SDS011;6170;42.206;24.142;2023-07-29T05:59:04;1999.90;;;999.90;;
12214;SDS011;6170;42.206;24.142;2023-07-29T06:01:31;1999.90;;;999.90;;
12214;SDS011;6170;42.206;24.142;2023-07-29T06:03:58;1999.90;;;999.90;;
12214;SDS011;6170;42.206;24.142;2023-07-29T06:06:26;1999.90;;;999.90;;
12214;SDS011;6170;42.206;24.142;2023-07-29T06:08:53;1999.90;;;999.90;;
12214;SDS011;6170;42.206;24.142;2023-07-29T06:11:20;1999.90;;;999.90;;
12214;SDS011;6170;42.206;24.142;2023-07-29T06:13:47;1999.90;;;999.90;;
12214;SDS011;6170;42.206;24.142;2023-07-29T06:16:16;1999.90;;;999.90;;
12214;SDS011;6170;42.206;24.142;2023-07-29T06:18:43;1999.90;;;999.90;;
12214;SDS011;6170;42.206;24.142;2023-07-29T06:21:11;1999.90;;;999.90;;
12214;SDS011;6170;42.206;24.142;2023-07-29T06:23:42;1999.90;;;999.90;;
12214;SDS011;6170;42.206;24.142;2023-07-29T06:26:09;1999.90;;;999.90;;
12214;SDS011;6170;42.206;24.142;2023-07-29T06:28:36;1999.90;;;999.90;;
12214;SDS011;6170;42.206;24.142;2023-07-29T06:31:03;1999.90;;;999.90;;
12214;SDS011;6170;42.206;24.142;2023-07-29T06:33:32;1999.90;;;999.90;;
12214;SDS011;6170;42.206;24.142;2023-07-29T06:35:59;1999.90;;;999.90;;
12214;SDS011;6170;42.206;24.142;2023-07-29T06:38:27;1999.90;;;999.90;;
12214;SDS011;6170;42.206;24.142;2023-07-29T06:40:54;1999.90;;;999.90;;
12214;SDS011;6170;42.206;24.142;2023-07-29T06:43:21;1999.90;;;999.90;;
12214;SDS011;6170;42.206;24.142;2023-07-29T06:45:48;1999.90;;;999.90;;
12214;SDS011;6170;42.206;24.142;2023-07-29T06:48:16;1999.90;;;999.90;;
12214;SDS011;6170;42.206;24.142;2023-07-29T06:50:45;1999.90;;;999.90;;
12214;SDS011;6170;42.206;24.142;2023-07-29T06:53:12;1999.90;;;999.90;;
12214;SDS011;6170;42.206;24.142;2023-07-29T06:55:39;1999.90;;;999.90;;
12214;SDS011;6170;42.206;24.142;2023-07-29T06:58:07;1999.90;;;999.90;;
12214;SDS011;6170;42.206;24.142;2023-07-29T07:00:34;1999.90;;;999.90;;
12214;SDS011;6170;42.206;24.142;2023-07-29T07:03:01;1999.90;;;999.90;;
12214;SDS011;6170;42.206;24.142;2023-07-29T07:05:29;1999.90;;;999.90;;
12214;SDS011;6170;42.206;24.142;2023-07-29T07:07:57;1999.90;;;999.90;;
12214;SDS011;6170;42.206;24.142;2023-07-29T07:10:24;1999.90;;;999.90;;
12214;SDS011;6170;42.206;24.142;2023-07-29T07:12:52;1999.90;;;999.90;;
12214;SDS011;6170;42.206;24.142;2023-07-29T07:15:19;1999.90;;;999.90;;
12214;SDS011;6170;42.206;24.142;2023-07-29T07:17:46;1999.90;;;999.90;;
12214;SDS011;6170;42.206;24.142;2023-07-29T07:20:13;1999.90;;;999.90;;
12214;SDS011;6170;42.206;24.142;2023-07-29T07:22:40;1999.90;;;999.90;;
12214;SDS011;6170;42.206;24.142;2023-07-29T07:25:09;1999.90;;;999.90;;
12214;SDS011;6170;42.206;24.142;2023-07-29T07:27:36;1999.90;;;999.90;;
12214;SDS011;6170;42.206;24.142;2023-07-29T07:30:04;1999.90;;;999.90;;
12214;SDS011;6170;42.206;24.142;2023-07-29T07:32:32;1999.90;;;999.90;;
12214;SDS011;6170;42.206;24.142;2023-07-29T07:34:59;1999.90;;;999.90;;
12214;SDS011;6170;42.206;24.142;2023-07-29T07:37:26;1999.90;;;999.90;;
12214;SDS011;6170;42.206;24.142;2023-07-29T07:39:53;1999.90;;;999.90;;
12214;SDS011;6170;42.206;24.142;2023-07-29T07:42:22;1999.90;;;999.90;;
12214;SDS011;6170;42.206;24.142;2023-07-29T07:44:49;1999.90;;;999.90;;
12214;SDS011;6170;42.206;24.142;2023-07-29T07:47:16;1999.90;;;999.90;;
12214;SDS011;6170;42.206;24.142;2023-07-29T07:49:43;1999.90;;;999.90;;
12214;SDS011;6170;42.206;24.142;2023-07-29T07:52:10;1999.90;;;999.90;;
12214;SDS011;6170;42.206;24.142;2023-07-29T07:54:38;1999.90;;;999.90;;
12214;SDS011;6170;42.206;24.142;2023-07-29T07:57:05;1999.90;;;999.90;;
12214;SDS011;6170;42.206;24.142;2023-07-29T07:59:34;1999.90;;;999.90;;
12214;SDS011;6170;42.206;24.142;2023-07-29T08:02:01;1999.90;;;999.90;;
12214;SDS011;6170;42.206;24.142;2023-07-29T08:04:29;1999.90;;;999.90;;
12214;SDS011;6170;42.206;24.142;2023-07-29T08:06:56;1999.90;;;999.90;;
12214;SDS011;6170;42.206;24.142;2023-07-29T08:09:23;1999.90;;;999.90;;
12214;SDS011;6170;42.206;24.142;2023-07-29T08:11:51;1999.90;;;999.90;;
12214;SDS011;6170;42.206;24.142;2023-07-29T08:14:18;1999.90;;;999.90;;
12214;SDS011;6170;42.206;24.142;2023-07-29T08:16:46;1999.90;;;999.90;;
12214;SDS011;6170;42.206;24.142;2023-07-29T08:19:14;1999.90;;;999.90;;
12214;SDS011;6170;42.206;24.142;2023-07-29T08:21:41;1999.90;;;999.90;;
12214;SDS011;6170;42.206;24.142;2023-07-29T08:24:08;1999.90;;;999.90;;
12214;SDS011;6170;42.206;24.142;2023-07-29T08:26:35;1999.90;;;999.90;;
12214;SDS011;6170;42.206;24.142;2023-07-29T08:29:02;1999.90;;;999.90;;
12214;SDS011;6170;42.206;24.142;2023-07-29T08:31:30;1999.90;;;999.90;;
12214;SDS011;6170;42.206;24.142;2023-07-29T08:34:00;1999.90;;;999.90;;
12214;SDS011;6170;42.206;24.142;2023-07-29T08:36:27;1999.90;;;999.90;;
12214;SDS011;6170;42.206;24.142;2023-07-29T08:38:54;1748.72;;;976.08;;
12214;SDS011;6170;42.206;24.142;2023-07-29T08:41:25;1746.47;;;973.83;;
12214;SDS011;6170;42.206;24.142;2023-07-29T08:44:01;1999.90;;;999.90;;
12214;SDS011;6170;42.206;24.142;2023-07-29T08:46:33;1999.90;;;999.90;;
12214;SDS011;6170;42.206;24.142;2023-07-29T08:49:02;1999.90;;;999.90;;
12214;SDS011;6170;42.206;24.142;2023-07-29T08:51:29;1999.90;;;999.90;;
12214;SDS011;6170;42.206;24.142;2023-07-29T08:53:58;1492.70;;;947.65;;
12214;SDS011;6170;42.206;24.142;2023-07-29T08:56:25;1003.88;;;908.97;;
12214;SDS011;6170;42.206;24.142;2023-07-29T08:58:53;1000.70;;;909.05;;
12214;SDS011;6170;42.206;24.142;2023-07-29T09:01:21;1017.10;;;924.40;;
12214;SDS011;6170;42.206;24.142;2023-07-29T09:03:48;1241.80;;;924.65;;
12214;SDS011;6170;42.206;24.142;2023-07-29T09:06:16;1753.47;;;980.17;;
12214;SDS011;6170;42.206;24.142;2023-07-29T09:08:46;1484.40;;;940.45;;
12214;SDS011;6170;42.206;24.142;2023-07-29T09:11:17;1510.07;;;963.47;;
12214;SDS011;6170;42.206;24.142;2023-07-29T09:13:45;1007.78;;;917.88;;
12214;SDS011;6170;42.206;24.142;2023-07-29T09:16:13;1001.22;;;911.75;;
12214;SDS011;6170;42.206;24.142;2023-07-29T09:18:41;1999.90;;;999.90;;
12214;SDS011;6170;42.206;24.142;2023-07-29T09:21:08;964.42;;;878.53;;
12214;SDS011;6170;42.206;24.142;2023-07-29T09:23:40;999.45;;;907.70;;
12214;SDS011;6170;42.206;24.142;2023-07-29T09:26:08;994.80;;;907.08;;
12214;SDS011;6170;42.206;24.142;2023-07-29T09:28:36;1240.95;;;925.13;;
12214;SDS011;6170;42.206;24.142;2023-07-29T09:31:04;983.72;;;893.53;;
12214;SDS011;6170;42.206;24.142;2023-07-29T09:33:33;1497.78;;;952.88;;
12214;SDS011;6170;42.206;24.142;2023-07-29T09:36:02;1006.22;;;914.88;;
12214;SDS011;6170;42.206;24.142;2023-07-29T09:38:34;1007.63;;;915.53;;
12214;SDS011;6170;42.206;24.142;2023-07-29T09:41:03;1028.18;;;933.13;;
12214;SDS011;6170;42.206;24.142;2023-07-29T09:43:31;981.97;;;893.13;;
12214;SDS011;6170;42.206;24.142;2023-07-29T09:45:59;987.30;;;897.05;;
12214;SDS011;6170;42.206;24.142;2023-07-29T09:48:27;983.85;;;893.13;;
12214;SDS011;6170;42.206;24.142;2023-07-29T09:50:56;982.90;;;895.90;;
12214;SDS011;6170;42.206;24.142;2023-07-29T09:53:24;983.47;;;897.17;;
12214;SDS011;6170;42.206;24.142;2023-07-29T09:55:52;1025.70;;;930.75;;
12214;SDS011;6170;42.206;24.142;2023-07-29T09:58:26;1507.22;;;960.58;;
12214;SDS011;6170;42.206;24.142;2023-07-29T10:00:53;1494.28;;;949.30;;
12214;SDS011;6170;42.206;24.142;2023-07-29T10:03:21;1223.10;;;908.90;;
12214;SDS011;6170;42.206;24.142;2023-07-29T10:05:48;973.90;;;887.35;;
12214;SDS011;6170;42.206;24.142;2023-07-29T10:08:16;990.60;;;899.47;;
12214;SDS011;6170;42.206;24.142;2023-07-29T10:10:45;971.53;;;887.28;;
12214;SDS011;6170;42.206;24.142;2023-07-29T10:13:18;977.03;;;891.55;;
12214;SDS011;6170;42.206;24.142;2023-07-29T10:15:47;994.75;;;907.35;;
12214;SDS011;6170;42.206;24.142;2023-07-29T10:18:16;1001.03;;;914.00;;
12214;SDS011;6170;42.206;24.142;2023-07-29T10:20:45;979.58;;;894.17;;
12214;SDS011;6170;42.206;24.142;2023-07-29T10:23:15;1001.42;;;914.53;;
12214;SDS011;6170;42.206;24.142;2023-07-29T10:25:46;991.30;;;905.55;;
12214;SDS011;6170;42.206;24.142;2023-07-29T10:28:14;971.20;;;887.03;;
12214;SDS011;6170;42.206;24.142;2023-07-29T10:30:46;1024.53;;;935.28;;
12214;SDS011;6170;42.206;24.142;2023-07-29T10:33:14;1011.95;;;923.38;;
12214;SDS011;6170;42.206;24.142;2023-07-29T10:35:41;1013.25;;;927.03;;
12214;SDS011;6170;42.206;24.142;2023-07-29T10:38:09;1015.78;;;925.25;;
12214;SDS011;6170;42.206;24.142;2023-07-29T10:40:43;966.47;;;883.15;;
12214;SDS011;6170;42.206;24.142;2023-07-29T10:43:11;1008.25;;;919.58;;
12214;SDS011;6170;42.206;24.142;2023-07-29T10:45:40;994.95;;;908.03;;
12214;SDS011;6170;42.206;24.142;2023-07-29T10:48:11;971.67;;;887.55;;
12214;SDS011;6170;42.206;24.142;2023-07-29T10:50:39;969.92;;;887.03;;
12214;SDS011;6170;42.206;24.142;2023-07-29T10:53:06;968.95;;;885.63;;
12214;SDS011;6170;42.206;24.142;2023-07-29T10:55:33;981.90;;;898.83;;
12214;SDS011;6170;42.206;24.142;2023-07-29T10:58:10;979.67;;;896.97;;
12214;SDS011;6170;42.206;24.142;2023-07-29T11:00:41;1025.32;;;936.13;;
12214;SDS011;6170;42.206;24.142;2023-07-29T11:03:11;1019.65;;;929.97;;
12214;SDS011;6170;42.206;24.142;2023-07-29T11:05:44;1015.40;;;927.13;;
12214;SDS011;6170;42.206;24.142;2023-07-29T11:08:23;1025.07;;;934.75;;
12214;SDS011;6170;42.206;24.142;2023-07-29T11:11:01;1007.45;;;917.35;;
12214;SDS011;6170;42.206;24.142;2023-07-29T11:13:30;987.22;;;900.17;;
12214;SDS011;6170;42.206;24.142;2023-07-29T11:15:58;979.42;;;895.65;;
12214;SDS011;6170;42.206;24.142;2023-07-29T11:18:28;1011.97;;;923.15;;
12214;SDS011;6170;42.206;24.142;2023-07-29T11:20:56;988.33;;;901.40;;
12214;SDS011;6170;42.206;24.142;2023-07-29T11:23:27;1016.20;;;926.30;;
12214;SDS011;6170;42.206;24.142;2023-07-29T11:25:56;1006.00;;;917.95;;
12214;SDS011;6170;42.206;24.142;2023-07-29T11:28:24;1025.97;;;934.28;;
12214;SDS011;6170;42.206;24.142;2023-07-29T11:30:51;993.30;;;904.65;;
12214;SDS011;6170;42.206;24.142;2023-07-29T11:33:20;1008.20;;;919.70;;
12214;SDS011;6170;42.206;24.142;2023-07-29T11:35:50;995.38;;;907.75;;
12214;SDS011;6170;42.206;24.142;2023-07-29T11:38:17;992.47;;;903.55;;
12214;SDS011;6170;42.206;24.142;2023-07-29T11:40:53;1010.10;;;919.70;;
12214;SDS011;6170;42.206;24.142;2023-07-29T11:43:22;990.25;;;902.20;;
12214;SDS011;6170;42.206;24.142;2023-07-29T11:45:49;1010.85;;;915.17;;
12214;SDS011;6170;42.206;24.142;2023-07-29T11:48:17;1019.13;;;928.67;;
12214;SDS011;6170;42.206;24.142;2023-07-29T11:50:44;983.20;;;896.25;;
12214;SDS011;6170;42.206;24.142;2023-07-29T11:53:14;996.05;;;907.92;;
12214;SDS011;6170;42.206;24.142;2023-07-29T11:55:41;1038.05;;;941.00;;
12214;SDS011;6170;42.206;24.142;2023-07-29T11:58:08;1013.35;;;923.75;;
12214;SDS011;6170;42.206;24.142;2023-07-29T12:00:37;1011.08;;;920.92;;
12214;SDS011;6170;42.206;24.142;2023-07-29T12:03:04;1015.70;;;925.53;;
12214;SDS011;6170;42.206;24.142;2023-07-29T12:05:33;1013.75;;;924.78;;
12214;SDS011;6170;42.206;24.142;2023-07-29T12:08:01;1010.90;;;921.58;;
12214;SDS011;6170;42.206;24.142;2023-07-29T12:10:29;1001.60;;;912.35;;
12214;SDS011;6170;42.206;24.142;2023-07-29T12:12:57;1006.25;;;915.00;;
12214;SDS011;6170;42.206;24.142;2023-07-29T12:15:24;1002.63;;;912.53;;
12214;SDS011;6170;42.206;24.142;2023-07-29T12:17:52;985.70;;;898.22;;
12214;SDS011;6170;42.206;24.142;2023-07-29T12:20:22;1019.05;;;924.50;;
12214;SDS011;6170;42.206;24.142;2023-07-29T12:22:53;976.45;;;887.70;;
12214;SDS011;6170;42.206;24.142;2023-07-29T12:25:20;972.85;;;882.75;;
12214;SDS011;6170;42.206;24.142;2023-07-29T12:27:49;992.20;;;898.42;;
12214;SDS011;6170;42.206;24.142;2023-07-29T12:30:19;990.30;;;899.63;;
12214;SDS011;6170;42.206;24.142;2023-07-29T12:32:47;1019.25;;;925.50;;
12214;SDS011;6170;42.206;24.142;2023-07-29T12:35:14;984.15;;;891.72;;
12214;SDS011;6170;42.206;24.142;2023-07-29T12:37:41;996.45;;;904.10;;
12214;SDS011;6170;42.206;24.142;2023-07-29T12:40:19;985.97;;;898.33;;
12214;SDS011;6170;42.206;24.142;2023-07-29T12:42:49;981.80;;;892.05;;
12214;SDS011;6170;42.206;24.142;2023-07-29T12:45:17;985.35;;;896.53;;
12214;SDS011;6170;42.206;24.142;2023-07-29T12:47:44;977.53;;;890.95;;
12214;SDS011;6170;42.206;24.142;2023-07-29T12:50:11;1007.75;;;917.42;;
12214;SDS011;6170;42.206;24.142;2023-07-29T12:52:38;999.78;;;911.72;;
12214;SDS011;6170;42.206;24.142;2023-07-29T12:55:05;987.97;;;900.28;;
12214;SDS011;6170;42.206;24.142;2023-07-29T12:57:38;1001.85;;;912.60;;
12214;SDS011;6170;42.206;24.142;2023-07-29T13:00:08;999.50;;;910.45;;
12214;SDS011;6170;42.206;24.142;2023-07-29T13:02:36;1007.88;;;919.78;;
12214;SDS011;6170;42.206;24.142;2023-07-29T13:05:03;995.38;;;906.35;;
12214;SDS011;6170;42.206;24.142;2023-07-29T13:07:31;1003.50;;;912.92;;
12214;SDS011;6170;42.206;24.142;2023-07-29T13:09:58;1020.33;;;931.50;;
12214;SDS011;6170;42.206;24.142;2023-07-29T13:12:25;1011.85;;;922.80;;
12214;SDS011;6170;42.206;24.142;2023-07-29T13:14:52;1012.67;;;921.30;;
12214;SDS011;6170;42.206;24.142;2023-07-29T13:17:20;1012.80;;;923.75;;
12214;SDS011;6170;42.206;24.142;2023-07-29T13:19:48;1002.35;;;913.78;;
12214;SDS011;6170;42.206;24.142;2023-07-29T13:22:15;1011.58;;;922.47;;
12214;SDS011;6170;42.206;24.142;2023-07-29T13:24:42;1002.58;;;913.05;;
12214;SDS011;6170;42.206;24.142;2023-07-29T13:27:09;1023.13;;;931.17;;
12214;SDS011;6170;42.206;24.142;2023-07-29T13:29:36;994.95;;;905.15;;
12214;SDS011;6170;42.206;24.142;2023-07-29T13:32:03;1017.78;;;926.75;;
12214;SDS011;6170;42.206;24.142;2023-07-29T13:34:32;1021.40;;;927.58;;
12214;SDS011;6170;42.206;24.142;2023-07-29T13:36:59;1023.35;;;929.63;;
12214;SDS011;6170;42.206;24.142;2023-07-29T13:39:26;1011.67;;;920.75;;
12214;SDS011;6170;42.206;24.142;2023-07-29T13:41:53;1015.83;;;927.00;;
12214;SDS011;6170;42.206;24.142;2023-07-29T13:44:20;1020.83;;;926.65;;
12214;SDS011;6170;42.206;24.142;2023-07-29T13:46:48;1023.40;;;929.35;;
12214;SDS011;6170;42.206;24.142;2023-07-29T13:49:15;1047.80;;;952.78;;
12214;SDS011;6170;42.206;24.142;2023-07-29T13:51:43;1013.33;;;922.88;;